Time;durP1;ratioP1;P1;durP2;ratioP2;P2;SDS_P1;SDS_P2;PMS_P1;PMS_P2;Temp;Humidity;BMP_temperature;BMP_pressure;BME280_temperature;BME280_humidity;BME280_pressure;Samples;Min_cycle;Max_cycle;Signal;HPM_P1;HPM_P2
2022/09/22 00:00:42;;;;;;;1.07;1.03;;;8.20;83.30;;;;;;948037;148;27414;-75
2022/09/22 00:03:09;;;;;;;1.40;1.30;;;8.20;83.40;;;;;;946443;148;27831;-76
2022/09/22 00:05:35;;;;;;;1.33;1.23;;;8.20;83.50;;;;;;947941;148;27800;-75
2022/09/22 00:08:02;;;;;;;1.33;1.23;;;8.20;83.60;;;;;;947908;148;27290;-77
2022/09/22 00:10:29;;;;;;;1.37;1.30;;;8.20;83.70;;;;;;947710;148;27446;-76
2022/09/22 00:12:55;;;;;;;1.70;1.60;;;8.10;83.70;;;;;;948609;148;28047;-75
2022/09/22 00:15:22;;;;;;;1.40;1.30;;;8.10;83.90;;;;;;948446;148;27414;-77
2022/09/22 00:17:48;;;;;;;1.60;1.50;;;8.10;84.00;;;;;;948993;148;27344;-75
2022/09/22 00:20:15;;;;;;;3.00;1.77;;;8.00;84.00;;;;;;947827;148;27364;-77
2022/09/22 00:22:41;;;;;;;3.63;1.70;;;8.00;84.20;;;;;;948375;148;27356;-75
2022/09/22 00:25:09;;;;;;;1.37;1.27;;;8.00;84.20;;;;;;947775;148;27301;-76
2022/09/22 00:27:35;;;;;;;1.60;1.50;;;8.00;84.40;;;;;;947393;148;27318;-75
2022/09/22 00:30:01;;;;;;;1.43;1.40;;;7.90;84.50;;;;;;948100;148;27312;-75
2022/09/22 00:32:28;;;;;;;2.00;1.80;;;7.90;84.60;;;;;;948212;148;27324;-76
2022/09/22 00:34:54;;;;;;;1.77;1.67;;;7.90;84.80;;;;;;948400;148;27472;-76
2022/09/22 00:37:21;;;;;;;2.83;1.60;;;7.80;84.90;;;;;;948671;148;27355;-75
2022/09/22 00:39:48;;;;;;;1.70;1.60;;;7.80;85.00;;;;;;948221;148;27382;-77
2022/09/22 00:42:14;;;;;;;1.67;1.57;;;7.80;85.20;;;;;;948312;148;27332;-75
2022/09/22 00:44:41;;;;;;;1.50;1.40;;;7.70;85.30;;;;;;948235;148;27363;-76
2022/09/22 00:47:08;;;;;;;1.70;1.50;;;7.70;85.60;;;;;;948349;148;27317;-77
2022/09/22 00:49:49;;;;;;;1.43;1.33;;;7.70;85.80;;;;;;946957;148;27426;-76
2022/09/22 00:52:15;;;;;;;1.23;1.20;;;7.60;85.90;;;;;;945609;148;27301;-75
2022/09/22 00:54:42;;;;;;;1.40;1.30;;;7.60;85.80;;;;;;947749;148;27368;-76
2022/09/22 00:57:11;;;;;;;1.53;1.43;;;7.60;86.10;;;;;;947100;148;27449;-77
2022/09/22 00:59:38;;;;;;;1.80;1.70;;;7.60;86.20;;;;;;947120;149;27467;-75
2022/09/22 01:02:04;;;;;;;1.40;1.30;;;7.50;86.30;;;;;;947352;148;27398;-76
2022/09/22 01:04:31;;;;;;;1.70;1.60;;;7.50;86.50;;;;;;948216;148;27315;-75
2022/09/22 01:06:58;;;;;;;1.73;1.60;;;7.50;86.70;;;;;;947866;148;27325;-77
2022/09/22 01:09:24;;;;;;;3.93;1.80;;;7.50;86.80;;;;;;947554;148;27356;-77
2022/09/22 01:11:51;;;;;;;2.00;1.80;;;7.50;87.00;;;;;;948699;148;27468;-76
2022/09/22 01:14:26;;;;;;;1.67;1.57;;;7.40;87.20;;;;;;947687;148;27308;-76
2022/09/22 01:17:14;;;;;;;1.93;1.73;;;7.40;87.50;;;;;;945600;148;27317;-76
2022/09/22 01:20:11;;;;;;;1.80;1.47;;;7.40;87.50;;;;;;947958;148;27407;-75
2022/09/22 01:23:14;;;;;;;1.50;1.40;;;7.40;87.50;;;;;;945227;148;27341;-78
2022/09/22 01:25:45;;;;;;;1.70;1.60;;;7.40;87.40;;;;;;947789;148;27419;-77
2022/09/22 01:28:48;;;;;;;2.23;1.50;;;7.40;87.60;;;;;;946598;148;27856;-77
2022/09/22 01:31:17;;;;;;;1.30;1.20;;;7.30;87.80;;;;;;946454;148;27405;-78
2022/09/22 01:33:44;;;;;;;1.50;1.40;;;7.30;87.80;;;;;;947094;148;27312;-78
2022/09/22 01:36:29;;;;;;;2.67;1.73;;;7.30;88.30;;;;;;945984;148;27454;-78
2022/09/22 01:39:14;;;;;;;1.53;1.43;;;7.30;88.50;;;;;;947834;148;27372;-77
2022/09/22 01:41:43;;;;;;;1.60;1.50;;;7.20;88.50;;;;;;946848;148;27313;-77
2022/09/22 01:44:12;;;;;;;2.53;1.87;;;7.30;89.30;;;;;;947375;148;27442;-78
2022/09/22 01:46:39;;;;;;;2.33;1.90;;;7.20;88.90;;;;;;947136;148;27446;-76
2022/09/22 01:49:06;;;;;;;1.50;1.40;;;7.20;89.20;;;;;;946024;148;27432;-79
2022/09/22 01:51:32;;;;;;;2.23;1.63;;;7.20;89.30;;;;;;947621;148;27344;-75
2022/09/22 01:53:58;;;;;;;2.90;1.73;;;7.20;89.50;;;;;;943294;148;27343;-75
2022/09/22 01:56:25;;;;;;;1.90;1.80;;;7.20;89.50;;;;;;936737;149;27409;-76
2022/09/22 01:58:54;;;;;;;2.17;1.67;;;7.20;89.60;;;;;;937758;149;27609;-76
2022/09/22 02:01:21;;;;;;;1.60;1.50;;;7.20;89.70;;;;;;937789;149;27309;-75
2022/09/22 02:03:53;;;;;;;2.37;1.80;;;7.20;89.80;;;;;;933850;149;27420;-76
2022/09/22 02:06:19;;;;;;;1.80;1.70;;;7.20;90.00;;;;;;928646;151;27370;-75
2022/09/22 02:08:55;;;;;;;1.80;1.70;;;7.20;90.10;;;;;;934503;149;27450;-77
2022/09/22 02:11:21;;;;;;;1.83;1.73;;;7.10;90.10;;;;;;937752;149;28898;-75
2022/09/22 02:13:48;;;;;;;1.83;1.67;;;7.10;90.20;;;;;;938669;149;27327;-75
2022/09/22 02:16:14;;;;;;;2.17;1.90;;;7.10;90.20;;;;;;938134;149;27383;-76
2022/09/22 02:18:46;;;;;;;2.30;1.70;;;7.10;90.20;;;;;;938500;149;28088;-75
2022/09/22 02:21:13;;;;;;;1.83;1.73;;;7.10;90.30;;;;;;933856;150;27372;-75
2022/09/22 02:23:40;;;;;;;1.80;1.70;;;7.10;90.30;;;;;;933855;150;27351;-75
2022/09/22 02:26:06;;;;;;;1.90;1.80;;;7.10;90.40;;;;;;932872;150;27611;-75
2022/09/22 02:28:33;;;;;;;1.70;1.60;;;7.10;90.40;;;;;;932889;150;27869;-75
2022/09/22 02:31:00;;;;;;;1.60;1.50;;;7.10;90.50;;;;;;933072;150;27419;-75
2022/09/22 02:33:26;;;;;;;2.37;2.17;;;7.00;90.50;;;;;;933768;150;27361;-75
2022/09/22 02:35:52;;;;;;;1.87;1.73;;;7.00;90.50;;;;;;933543;150;27359;-75
2022/09/22 02:38:19;;;;;;;1.77;1.67;;;7.00;90.60;;;;;;928599;150;27398;-80
2022/09/22 02:41:01;;;;;;;3.10;1.97;;;7.00;90.60;;;;;;934034;150;27359;-78
2022/09/22 02:43:33;;;;;;;1.40;1.30;;;7.00;90.60;;;;;;933254;150;27510;-78
2022/09/22 02:46:06;;;;;;;2.00;1.80;;;6.90;90.60;;;;;;932969;150;27469;-80
2022/09/22 02:48:32;;;;;;;1.80;1.70;;;6.90;90.70;;;;;;931270;150;28641;-79
2022/09/22 02:50:59;;;;;;;2.17;1.97;;;6.90;90.80;;;;;;932953;150;27329;-79
2022/09/22 02:53:25;;;;;;;3.90;2.10;;;6.90;90.90;;;;;;933880;150;27309;-79
2022/09/22 02:55:52;;;;;;;2.23;1.97;;;6.90;91.00;;;;;;942771;149;27320;-79
2022/09/22 02:58:19;;;;;;;3.10;2.00;;;6.90;91.10;;;;;;943634;149;27448;-78
2022/09/22 03:00:45;;;;;;;1.57;1.47;;;6.90;91.20;;;;;;927415;150;27410;-79
2022/09/22 03:03:12;;;;;;;1.77;1.67;;;6.90;91.30;;;;;;934213;150;27339;-78
2022/09/22 03:05:38;;;;;;;3.70;2.10;;;6.80;91.30;;;;;;949947;146;27397;-79
2022/09/22 03:08:05;;;;;;;5.37;1.93;;;6.80;91.30;;;;;;941822;149;27395;-79
2022/09/22 03:10:32;;;;;;;1.70;1.60;;;6.80;91.40;;;;;;927505;150;27483;-79
2022/09/22 03:12:58;;;;;;;2.00;1.80;;;6.90;91.40;;;;;;942897;148;27340;-79
2022/09/22 03:15:25;;;;;;;1.63;1.53;;;6.80;91.50;;;;;;947674;148;28651;-79
2022/09/22 03:17:51;;;;;;;2.33;2.13;;;6.80;91.50;;;;;;947311;148;27352;-79
2022/09/22 03:20:18;;;;;;;2.47;2.10;;;6.80;91.60;;;;;;948330;148;27349;-78
2022/09/22 03:22:44;;;;;;;2.30;2.10;;;6.80;91.70;;;;;;935389;149;27422;-79
2022/09/22 03:25:11;;;;;;;1.60;1.50;;;6.80;91.70;;;;;;926220;149;27451;-79
2022/09/22 03:27:38;;;;;;;2.37;2.17;;;6.80;91.70;;;;;;934960;150;27428;-79
2022/09/22 03:30:04;;;;;;;3.07;2.00;;;6.80;91.70;;;;;;938965;150;27304;-79
2022/09/22 03:32:31;;;;;;;2.10;2.00;;;6.80;91.70;;;;;;948449;147;27833;-79
2022/09/22 03:34:57;;;;;;;2.23;2.07;;;6.80;91.60;;;;;;934041;150;27352;-78
2022/09/22 03:37:24;;;;;;;1.80;1.70;;;6.70;91.60;;;;;;944115;148;27446;-79
2022/09/22 03:39:51;;;;;;;1.83;1.73;;;6.70;91.50;;;;;;950703;147;27399;-79
2022/09/22 03:42:17;;;;;;;2.10;1.90;;;6.70;91.60;;;;;;951149;147;27325;-78
2022/09/22 03:44:44;;;;;;;1.80;1.70;;;6.70;91.50;;;;;;950316;147;27341;-79
2022/09/22 03:47:10;;;;;;;3.77;1.70;;;6.60;91.40;;;;;;950606;147;27314;-78
2022/09/22 03:49:37;;;;;;;1.97;1.80;;;6.60;91.50;;;;;;950488;147;27341;-78
2022/09/22 03:52:03;;;;;;;1.90;1.80;;;6.60;91.50;;;;;;950563;147;27351;-79
2022/09/22 03:54:31;;;;;;;1.73;1.63;;;6.50;91.50;;;;;;950953;147;27311;-79
2022/09/22 03:56:57;;;;;;;1.90;1.80;;;6.50;91.50;;;;;;950703;147;27938;-79
2022/09/22 03:59:23;;;;;;;2.83;2.30;;;6.40;91.60;;;;;;950312;147;27385;-79
2022/09/22 04:01:50;;;;;;;2.40;2.20;;;6.40;91.50;;;;;;950477;147;27331;-78
2022/09/22 04:04:16;;;;;;;2.77;2.13;;;6.40;91.60;;;;;;950383;147;27404;-79
2022/09/22 04:06:43;;;;;;;1.97;1.77;;;6.40;91.60;;;;;;950649;147;27366;-79
2022/09/22 04:09:10;;;;;;;3.17;2.30;;;6.30;91.70;;;;;;950586;147;27305;-79
2022/09/22 04:11:36;;;;;;;2.60;2.00;;;6.30;91.80;;;;;;950637;147;27275;-79
2022/09/22 04:14:03;;;;;;;3.17;2.40;;;6.30;91.80;;;;;;951486;147;27285;-79
2022/09/22 04:16:30;;;;;;;2.23;2.03;;;6.30;91.80;;;;;;935085;150;27334;-79
2022/09/22 04:18:56;;;;;;;2.00;1.77;;;6.20;91.90;;;;;;928026;150;27476;-79
2022/09/22 04:21:22;;;;;;;1.90;1.80;;;6.20;91.90;;;;;;951483;147;27394;-79
2022/09/22 04:23:49;;;;;;;1.77;1.67;;;6.10;91.90;;;;;;940856;150;27302;-78
2022/09/22 04:26:16;;;;;;;2.80;1.73;;;6.10;91.90;;;;;;928179;150;27803;-79
2022/09/22 04:28:42;;;;;;;2.73;1.80;;;6.10;92.10;;;;;;940905;149;27374;-79
2022/09/22 04:31:09;;;;;;;2.70;2.03;;;6.10;92.20;;;;;;941865;149;27840;-79
2022/09/22 04:33:36;;;;;;;1.57;1.47;;;6.10;92.30;;;;;;940256;149;27291;-79
2022/09/22 04:36:02;;;;;;;3.43;2.10;;;6.10;92.40;;;;;;941429;149;27318;-79
2022/09/22 04:38:29;;;;;;;1.97;1.87;;;6.10;92.50;;;;;;941287;149;27430;-78
2022/09/22 04:40:56;;;;;;;1.80;1.70;;;6.00;92.70;;;;;;941985;149;27349;-79
2022/09/22 04:43:22;;;;;;;1.77;1.67;;;6.10;92.70;;;;;;948822;147;27858;-79
2022/09/22 04:45:48;;;;;;;2.33;1.67;;;6.10;92.90;;;;;;932905;149;27361;-78
2022/09/22 04:48:15;;;;;;;2.00;1.80;;;6.10;92.90;;;;;;933972;150;27327;-78
2022/09/22 04:50:41;;;;;;;1.93;1.83;;;6.00;92.90;;;;;;934964;149;27267;-79
2022/09/22 04:53:08;;;;;;;2.13;1.93;;;6.10;93.00;;;;;;944330;149;27387;-79
2022/09/22 04:55:35;;;;;;;1.97;1.87;;;6.10;93.00;;;;;;954058;146;27378;-78
2022/09/22 04:58:01;;;;;;;1.93;1.83;;;6.10;93.20;;;;;;935726;149;27370;-79
2022/09/22 05:00:28;;;;;;;2.30;2.10;;;6.10;93.10;;;;;;964940;146;27778;-79
2022/09/22 05:02:54;;;;;;;2.20;2.00;;;6.10;93.10;;;;;;945884;148;27362;-79
2022/09/22 05:05:23;;;;;;;2.90;1.77;;;6.10;93.20;;;;;;955755;148;27311;-79
2022/09/22 05:07:48;;;;;;;2.33;2.13;;;6.00;93.10;;;;;;957220;148;27368;-79
2022/09/22 05:10:15;;;;;;;2.10;2.00;;;6.00;93.20;;;;;;957761;148;27330;-79
2022/09/22 05:12:41;;;;;;;2.30;2.00;;;6.00;93.30;;;;;;965258;146;27339;-79
2022/09/22 05:15:07;;;;;;;2.93;2.10;;;6.10;93.30;;;;;;965148;146;27279;-79
2022/09/22 05:17:37;;;;;;;2.23;2.07;;;6.10;93.40;;;;;;967621;145;27326;-79
2022/09/22 05:20:01;;;;;;;1.90;1.80;;;6.10;93.40;;;;;;956395;147;27322;-79
2022/09/22 05:22:27;;;;;;;2.30;2.10;;;6.10;93.60;;;;;;959477;148;27427;-81
2022/09/22 05:24:54;;;;;;;2.43;2.23;;;6.10;93.70;;;;;;958284;148;27341;-80
2022/09/22 05:27:20;;;;;;;1.87;1.77;;;6.10;93.80;;;;;;958011;148;27292;-80
2022/09/22 05:29:47;;;;;;;2.57;2.37;;;6.10;93.90;;;;;;957960;148;27342;-81
2022/09/22 05:32:13;;;;;;;2.27;2.13;;;6.20;94.10;;;;;;960152;148;27303;-79
2022/09/22 05:34:40;;;;;;;2.20;1.90;;;6.20;94.20;;;;;;959608;148;27343;-79
2022/09/22 05:37:07;;;;;;;2.10;1.90;;;6.20;94.40;;;;;;959963;148;27342;-79
2022/09/22 05:39:33;;;;;;;2.60;2.40;;;6.30;94.70;;;;;;959280;148;27259;-79
2022/09/22 05:42:00;;;;;;;2.60;2.40;;;6.40;95.70;;;;;;959925;148;27584;-79
2022/09/22 05:44:27;;;;;;;2.93;2.40;;;6.60;97.20;;;;;;960027;148;27365;-79
2022/09/22 05:46:53;;;;;;;2.50;2.17;;;6.80;98.80;;;;;;959154;148;27294;-79
2022/09/22 05:49:20;;;;;;;3.57;2.90;;;7.20;99.90;;;;;;959007;148;27443;-79
2022/09/22 05:51:46;;;;;;;2.93;2.73;;;7.70;99.90;;;;;;959198;148;27358;-78
2022/09/22 05:54:13;;;;;;;3.63;3.33;;;8.20;99.90;;;;;;960196;148;27303;-78
2022/09/22 05:56:39;;;;;;;3.10;2.80;;;8.80;99.90;;;;;;960593;148;27850;-79
2022/09/22 05:59:06;;;;;;;2.80;2.50;;;9.50;99.90;;;;;;960662;148;27687;-79
2022/09/22 06:01:33;;;;;;;2.60;2.40;;;10.10;99.90;;;;;;962196;148;27338;-78
2022/09/22 06:03:59;;;;;;;3.53;2.97;;;10.80;99.90;;;;;;960614;148;27294;-78
2022/09/22 06:06:26;;;;;;;4.00;3.00;;;11.50;99.90;;;;;;962062;148;27302;-78
2022/09/22 06:08:52;;;;;;;3.23;2.93;;;12.10;99.90;;;;;;961285;148;27324;-79
2022/09/22 06:11:19;;;;;;;3.10;2.60;;;12.80;99.90;;;;;;960489;148;27376;-78
2022/09/22 06:13:47;;;;;;;2.73;2.53;;;13.50;99.90;;;;;;963271;148;27362;-78
2022/09/22 06:16:12;;;;;;;4.25;3.02;;;14.20;99.20;;;;;;959116;147;27414;-78
2022/09/22 06:18:39;;;;;;;3.37;3.08;;;14.90;97.40;;;;;;952144;148;27433;-78
2022/09/22 06:21:05;;;;;;;3.08;2.85;;;15.60;95.90;;;;;;952026;148;27413;-78
2022/09/22 06:23:32;;;;;;;3.17;2.50;;;16.20;94.50;;;;;;969416;145;27888;-77
2022/09/22 06:25:58;;;;;;;2.70;2.50;;;16.90;92.90;;;;;;970455;145;27414;-77
2022/09/22 06:28:25;;;;;;;2.90;2.40;;;17.50;91.00;;;;;;969083;145;27345;-77
2022/09/22 06:30:52;;;;;;;3.65;2.37;;;18.20;88.70;;;;;;952615;147;27347;-77
2022/09/22 06:33:18;;;;;;;2.20;2.00;;;18.90;84.90;;;;;;952218;148;27312;-77
2022/09/22 06:35:45;;;;;;;2.25;1.75;;;19.40;82.20;;;;;;952084;148;27392;-77
2022/09/22 06:38:12;;;;;;;2.35;1.87;;;20.00;79.40;;;;;;952468;147;27331;-77
2022/09/22 06:40:38;;;;;;;3.02;1.87;;;20.50;77.10;;;;;;950375;148;27428;-78
2022/09/22 06:43:10;;;;;;;2.02;1.87;;;21.00;75.30;;;;;;950655;148;27348;-78
2022/09/22 06:45:34;;;;;;;2.20;1.95;;;21.50;73.40;;;;;;951860;148;27388;-78
2022/09/22 06:48:01;;;;;;;2.33;1.62;;;22.00;72.00;;;;;;951566;148;27253;-78
2022/09/22 06:50:31;;;;;;;2.20;1.87;;;22.50;70.40;;;;;;951982;148;27345;-78
2022/09/22 06:52:58;;;;;;;2.67;2.00;;;22.90;69.10;;;;;;960989;146;27381;-77
2022/09/22 06:55:23;;;;;;;3.15;2.17;;;23.40;67.50;;;;;;960973;148;28588;-77
2022/09/22 06:57:50;;;;;;;2.52;1.87;;;23.80;66.10;;;;;;962053;148;27339;-77
2022/09/22 07:00:16;;;;;;;1.92;1.75;;;24.30;64.90;;;;;;962673;148;27916;-78
2022/09/22 07:02:43;;;;;;;2.72;1.98;;;24.70;63.50;;;;;;963888;148;27357;-78
2022/09/22 07:05:10;;;;;;;1.72;1.62;;;25.00;61.20;;;;;;963719;148;27715;-78
2022/09/22 07:07:36;;;;;;;2.58;1.60;;;25.40;60.60;;;;;;938927;150;27447;-78
2022/09/22 07:10:03;;;;;;;1.55;1.30;;;25.60;59.70;;;;;;955519;146;27308;-78
2022/09/22 07:12:30;;;;;;;2.35;1.60;;;25.90;59.20;;;;;;954703;146;27297;-78
2022/09/22 07:14:56;;;;;;;1.67;1.40;;;26.10;59.00;;;;;;954243;146;27409;-78
2022/09/22 07:17:23;;;;;;;1.60;1.50;;;26.50;58.60;;;;;;951780;148;27328;-78
2022/09/22 07:19:50;;;;;;;2.08;1.70;;;26.80;58.20;;;;;;951488;148;27462;-78
2022/09/22 07:22:18;;;;;;;1.77;1.62;;;27.20;58.00;;;;;;951058;148;28548;-77
2022/09/22 07:24:42;;;;;;;2.08;1.82;;;27.60;57.50;;;;;;954498;146;27820;-78
2022/09/22 07:27:09;;;;;;;1.67;1.57;;;28.00;57.00;;;;;;951059;148;27402;-78
2022/09/22 07:29:38;;;;;;;3.85;1.77;;;28.30;56.30;;;;;;951049;148;27290;-78
2022/09/22 07:32:05;;;;;;;1.98;1.50;;;28.80;55.60;;;;;;951725;148;27365;-78
2022/09/22 07:34:31;;;;;;;1.62;1.52;;;29.20;54.90;;;;;;950716;148;27361;-78
2022/09/22 07:36:58;;;;;;;2.00;1.80;;;29.60;54.30;;;;;;951574;148;27254;-78
2022/09/22 07:39:24;;;;;;;1.55;1.45;;;30.00;53.60;;;;;;951529;148;27345;-78
2022/09/22 07:41:51;;;;;;;1.60;1.50;;;30.30;52.70;;;;;;952114;148;27442;-77
2022/09/22 07:47:03;;;;;;;1.70;1.52;;;30.90;51.50;;;;;;951447;148;27278;-77
2022/09/22 07:49:29;;;;;;;1.50;1.40;;;31.20;51.10;;;;;;951286;148;27449;-77
2022/09/22 07:51:56;;;;;;;1.60;1.50;;;31.50;50.60;;;;;;951248;148;27347;-78
2022/09/22 07:54:22;;;;;;;2.27;1.60;;;31.80;50.20;;;;;;951417;148;27294;-78
2022/09/22 07:56:56;;;;;;;1.72;1.62;;;32.00;49.60;;;;;;951890;148;27371;-78
2022/09/22 07:59:18;;;;;;;1.75;1.32;;;32.20;49.10;;;;;;940876;149;27441;-78
2022/09/22 08:01:46;;;;;;;2.37;1.72;;;32.50;48.60;;;;;;940806;149;27381;-78
2022/09/22 08:04:12;;;;;;;2.10;1.90;;;32.70;48.20;;;;;;949895;147;27330;-78
2022/09/22 08:06:38;;;;;;;1.62;1.52;;;32.90;47.90;;;;;;942473;150;27294;-78
2022/09/22 08:09:07;;;;;;;1.75;1.65;;;33.20;47.30;;;;;;943433;149;27371;-78
2022/09/22 08:11:31;;;;;;;2.00;1.90;;;33.40;46.80;;;;;;927467;150;27355;-78
2022/09/22 08:14:00;;;;;;;1.70;1.60;;;33.60;46.30;;;;;;950112;147;27273;-78
2022/09/22 08:16:29;;;;;;;2.30;2.10;;;33.70;46.00;;;;;;927669;150;27330;-78
2022/09/22 08:18:56;;;;;;;2.37;2.17;;;33.80;45.30;;;;;;941088;149;27426;-78
2022/09/22 08:21:26;;;;;;;2.40;2.20;;;34.00;45.30;;;;;;940837;149;27432;-78
2022/09/22 08:23:52;;;;;;;2.33;2.12;;;34.10;45.20;;;;;;950973;147;27308;-78
2022/09/22 08:26:21;;;;;;;2.25;2.00;;;34.20;44.80;;;;;;944137;148;27385;-78
2022/09/22 08:28:51;;;;;;;2.77;1.90;;;34.30;44.50;;;;;;950601;147;27421;-78
2022/09/22 08:31:20;;;;;;;1.85;1.75;;;34.40;44.10;;;;;;926763;150;27348;-78
2022/09/22 08:33:44;;;;;;;2.17;1.92;;;34.60;43.90;;;;;;940254;149;27352;-77
2022/09/22 08:36:10;;;;;;;1.90;1.80;;;34.70;43.70;;;;;;940881;149;27337;-77
2022/09/22 08:38:38;;;;;;;2.62;1.98;;;34.80;43.30;;;;;;941808;149;26259;-77
2022/09/22 08:41:37;;;;;;;1.87;1.77;;;34.90;43.00;;;;;;942628;149;27379;-77
2022/09/22 08:44:01;;;;;;;2.55;1.90;;;34.90;42.70;;;;;;941224;149;26912;-77
2022/09/22 08:46:30;;;;;;;1.77;1.60;;;35.10;42.70;;;;;;950387;147;26342;-77
2022/09/22 08:51:54;;;;;;;1.80;1.70;;;35.20;41.70;;;;;;932448;149;27410;-78
2022/09/22 08:54:20;;;;;;;1.87;1.60;;;35.20;41.80;;;;;;940139;148;27440;-78
2022/09/22 08:56:53;;;;;;;1.70;1.60;;;35.20;41.40;;;;;;940964;149;26297;-78
2022/09/22 08:59:21;;;;;;;1.92;1.82;;;35.30;41.20;;;;;;940505;149;26268;-78
2022/09/22 09:02:03;;;;;;;1.65;1.55;;;35.40;41.10;;;;;;941017;149;26256;-78
2022/09/22 09:04:42;;;;;;;1.70;1.60;;;35.40;40.70;;;;;;939847;149;26327;-78
2022/09/22 09:07:14;;;;;;;9.83;7.03;;;35.50;40.80;;;;;;940562;149;26230;-78
2022/09/22 09:09:59;;;;;;;2.55;2.17;;;35.60;40.60;;;;;;941023;149;27366;-78
2022/09/22 09:12:34;;;;;;;1.70;1.60;;;35.70;40.20;;;;;;916271;151;26363;-77
2022/09/22 09:15:01;;;;;;;1.82;1.72;;;35.70;39.80;;;;;;941381;149;26198;-77
2022/09/22 09:17:27;;;;;;;1.80;1.70;;;35.70;39.40;;;;;;936988;149;27885;-77
2022/09/22 09:19:54;;;;;;;1.77;1.47;;;35.60;39.40;;;;;;944341;149;26267;-77
2022/09/22 09:22:26;;;;;;;1.42;1.32;;;35.60;39.40;;;;;;944107;149;26852;-77
2022/09/22 09:24:58;;;;;;;1.65;1.55;;;35.50;39.20;;;;;;945278;149;27407;-77
2022/09/22 09:27:28;;;;;;;1.70;1.60;;;35.50;38.80;;;;;;944088;149;27298;-77
2022/09/22 09:30:00;;;;;;;2.65;1.80;;;35.30;38.30;;;;;;944620;149;26284;-77
2022/09/22 09:32:29;;;;;;;1.80;1.70;;;35.20;38.30;;;;;;945266;149;26289;-77
2022/09/22 09:34:53;;;;;;;2.25;1.70;;;35.00;38.40;;;;;;943756;149;26281;-77
2022/09/22 09:37:20;;;;;;;2.00;1.80;;;34.80;38.40;;;;;;944569;149;27419;-77
2022/09/22 09:39:46;;;;;;;1.75;1.65;;;34.60;38.00;;;;;;945625;149;26343;-77
2022/09/22 09:42:13;;;;;;;1.80;1.70;;;34.40;38.20;;;;;;945517;149;27366;-79
2022/09/22 09:44:40;;;;;;;4.17;1.80;;;34.20;38.10;;;;;;940524;149;27381;-77
2022/09/22 09:47:35;;;;;;;1.45;1.35;;;33.90;38.10;;;;;;945315;149;27311;-77
2022/09/22 09:50:02;;;;;;;1.65;1.35;;;33.50;37.60;;;;;;943735;149;27330;-77
2022/09/22 09:52:27;;;;;;;1.60;1.50;;;33.10;37.80;;;;;;943784;149;27313;-77
2022/09/22 09:54:54;;;;;;;1.95;1.67;;;32.60;37.30;;;;;;944814;149;27411;-77
2022/09/22 09:57:20;;;;;;;2.95;1.40;;;32.10;37.30;;;;;;945417;149;27361;-77
2022/09/22 10:02:38;;;;;;;1.87;1.07;;;31.10;37.60;;;;;;945479;149;27365;-77
2022/09/22 10:05:04;;;;;;;1.35;1.25;;;30.60;38.10;;;;;;940407;149;27314;-77
2022/09/22 10:07:31;;;;;;;1.40;1.30;;;30.10;38.40;;;;;;943813;149;27378;-78
2022/09/22 10:09:57;;;;;;;1.12;1.07;;;29.70;38.50;;;;;;943854;149;27686;-78
2022/09/22 10:12:30;;;;;;;1.22;1.12;;;29.30;38.90;;;;;;940573;149;27366;-77
2022/09/22 10:14:56;;;;;;;1.20;1.10;;;29.00;39.40;;;;;;944263;149;27321;-77
2022/09/22 10:17:41;;;;;;;1.77;1.37;;;28.60;39.40;;;;;;945007;149;27303;-78
2022/09/22 10:20:25;;;;;;;2.02;1.30;;;28.20;39.40;;;;;;944292;149;27283;-77
2022/09/22 10:22:52;;;;;;;3.35;1.50;;;27.90;39.70;;;;;;945177;149;27364;-77
2022/09/22 10:25:24;;;;;;;2.35;1.40;;;27.50;40.10;;;;;;944558;149;27867;-77
2022/09/22 10:28:09;;;;;;;1.85;1.05;;;27.20;40.40;;;;;;945371;149;27352;-77
2022/09/22 10:30:39;;;;;;;2.15;1.10;;;26.90;40.70;;;;;;942365;149;27436;-78
2022/09/22 10:33:17;;;;;;;0.95;0.95;;;26.60;40.90;;;;;;944342;149;27317;-78
2022/09/22 10:36:03;;;;;;;1.40;1.15;;;26.40;41.20;;;;;;944460;149;27428;-78
2022/09/22 10:38:29;;;;;;;2.40;1.20;;;26.10;41.30;;;;;;944571;149;27392;-77
2022/09/22 10:40:56;;;;;;;1.75;1.42;;;25.80;41.60;;;;;;944409;149;27329;-77
2022/09/22 10:43:29;;;;;;;1.70;1.00;;;25.60;41.70;;;;;;944093;149;27370;-77
2022/09/22 10:46:15;;;;;;;2.08;1.00;;;25.40;42.00;;;;;;944837;149;27350;-77
2022/09/22 10:48:52;;;;;;;2.05;0.82;;;25.20;42.10;;;;;;944329;149;27355;-77
2022/09/22 10:51:40;;;;;;;1.12;0.95;;;24.90;42.30;;;;;;944727;149;27332;-78
2022/09/22 10:54:28;;;;;;;2.67;1.35;;;24.70;42.50;;;;;;945858;149;27330;-78
2022/09/22 10:56:55;;;;;;;0.80;0.80;;;24.50;42.60;;;;;;945392;149;27287;-77
2022/09/22 10:59:39;;;;;;;1.70;0.80;;;24.20;42.80;;;;;;924387;150;27390;-77
2022/09/22 11:02:34;;;;;;;1.02;0.80;;;24.00;43.50;;;;;;926074;150;27372;-78
2022/09/22 11:12:14;;;;;;;1.17;0.90;;;23.80;43.10;;;;;;951274;147;27349;-78
2022/09/22 11:13:35;;;;;;;1.15;0.95;;;23.20;43.60;;;;;;929598;149;27430;-78
2022/09/22 11:16:12;;;;;;;1.65;1.15;;;23.00;43.80;;;;;;931881;150;27432;-78
2022/09/22 11:18:44;;;;;;;2.90;1.00;;;22.90;44.30;;;;;;943330;148;27317;-78
2022/09/22 11:21:13;;;;;;;0.95;0.88;;;22.70;44.40;;;;;;949926;147;27436;-78
2022/09/22 11:23:56;;;;;;;1.27;1.00;;;22.60;44.90;;;;;;933685;149;27912;-77
2022/09/22 11:26:30;;;;;;;5.00;1.72;;;22.60;45.00;;;;;;930976;150;27369;-77
2022/09/22 11:29:19;;;;;;;1.55;1.00;;;22.50;45.00;;;;;;932350;150;27335;-78
2022/09/22 11:32:05;;;;;;;2.15;1.00;;;22.50;45.30;;;;;;949717;147;27305;-77
2022/09/22 11:34:47;;;;;;;1.25;1.15;;;22.50;45.40;;;;;;950823;147;27367;-77
2022/09/22 11:37:25;;;;;;;0.98;0.75;;;22.50;45.40;;;;;;927685;150;27467;-77
2022/09/22 11:39:55;;;;;;;1.65;0.95;;;22.60;45.60;;;;;;940109;149;27474;-77
2022/09/22 11:42:33;;;;;;;1.00;0.95;;;22.70;45.60;;;;;;949141;147;27297;-78
2022/09/22 11:45:28;;;;;;;1.20;1.10;;;22.90;45.70;;;;;;941234;148;27354;-78
2022/09/22 11:48:09;;;;;;;1.55;1.27;;;23.10;45.60;;;;;;920341;150;27318;-78
2022/09/22 11:51:00;;;;;;;0.45;0.45;;;23.30;45.40;;;;;;949940;147;27385;-78
2022/09/22 11:53:32;;;;;;;2.12;0.75;;;23.50;45.00;;;;;;951421;147;27803;-78
2022/09/22 11:56:17;;;;;;;1.42;0.75;;;23.60;44.20;;;;;;933804;149;27751;-78
2022/09/22 11:58:44;;;;;;;1.47;0.90;;;23.70;44.60;;;;;;934874;149;27265;-77
2022/09/22 12:01:19;;;;;;;1.47;1.37;;;23.70;44.30;;;;;;935300;149;27296;-77
2022/09/22 12:03:51;;;;;;;0.62;0.60;;;23.70;44.00;;;;;;926089;149;27383;-77
2022/09/22 12:06:18;;;;;;;2.47;0.72;;;23.60;43.60;;;;;;934694;150;27361;-77
2022/09/22 12:08:53;;;;;;;0.60;0.47;;;23.60;43.30;;;;;;950212;147;27379;-77
2022/09/22 12:11:20;;;;;;;0.95;0.55;;;23.50;43.00;;;;;;933897;150;27263;-77
2022/09/22 12:13:46;;;;;;;1.52;0.72;;;23.30;42.60;;;;;;943815;148;27349;-77
2022/09/22 12:16:22;;;;;;;0.70;0.60;;;23.20;43.00;;;;;;951688;147;27500;-77
2022/09/22 12:18:55;;;;;;;0.42;0.42;;;23.00;43.00;;;;;;947998;147;27407;-77
2022/09/22 12:21:37;;;;;;;1.55;0.72;;;22.90;43.00;;;;;;950852;147;27780;-77
2022/09/22 12:24:03;;;;;;;1.85;0.68;;;22.70;43.50;;;;;;949996;147;27388;-78
2022/09/22 12:26:32;;;;;;;0.60;0.60;;;22.60;43.40;;;;;;949363;147;27334;-78
2022/09/22 12:28:59;;;;;;;1.87;0.45;;;22.40;43.40;;;;;;928222;149;27366;-78
2022/09/22 12:31:31;;;;;;;0.70;0.70;;;22.30;43.50;;;;;;938939;150;28399;-78
2022/09/22 12:33:58;;;;;;;1.92;0.80;;;22.20;43.60;;;;;;942275;148;27390;-77
2022/09/22 12:36:27;;;;;;;0.95;0.60;;;22.20;43.50;;;;;;951679;147;27264;-77
2022/09/22 12:39:12;;;;;;;0.75;0.70;;;22.10;43.60;;;;;;950751;147;27427;-77
2022/09/22 12:41:48;;;;;;;0.57;0.55;;;22.00;43.60;;;;;;950699;147;27361;-77
2022/09/22 12:44:21;;;;;;;0.62;0.50;;;21.90;43.40;;;;;;950801;147;27375;-77
2022/09/22 12:46:47;;;;;;;0.68;0.65;;;21.80;43.30;;;;;;949813;147;27293;-77
2022/09/22 12:49:14;;;;;;;0.85;0.60;;;21.80;43.50;;;;;;926581;150;27292;-77
2022/09/22 12:51:40;;;;;;;1.15;0.80;;;21.70;43.60;;;;;;939511;149;27332;-77
2022/09/22 12:54:22;;;;;;;0.55;0.50;;;21.70;43.60;;;;;;941246;149;27382;-78
2022/09/22 12:57:10;;;;;;;1.20;1.00;;;21.70;43.30;;;;;;940944;149;27357;-77
2022/09/22 12:59:38;;;;;;;0.85;0.70;;;21.70;43.30;;;;;;940700;149;27281;-77
2022/09/22 13:02:17;;;;;;;0.82;0.50;;;21.60;43.40;;;;;;963683;145;27323;-77
2022/09/22 13:04:55;;;;;;;0.80;0.80;;;21.70;43.50;;;;;;970365;145;27425;-77
2022/09/22 13:07:40;;;;;;;0.60;0.50;;;21.70;43.70;;;;;;949578;148;27363;-77
2022/09/22 13:10:22;;;;;;;1.70;0.90;;;21.60;43.50;;;;;;958321;147;27404;-77
2022/09/22 13:13:00;;;;;;;0.72;0.57;;;21.60;43.60;;;;;;968790;145;27303;-77
2022/09/22 13:15:27;;;;;;;1.12;0.93;;;21.60;43.80;;;;;;963826;145;27427;-78
2022/09/22 13:17:53;;;;;;;1.62;0.60;;;21.60;43.70;;;;;;969419;145;27278;-78